sensor_id;sensor_type;location;lat;lon;timestamp;temperature;humidity
1704;DHT22;849;48.780;9.216;2022-12-29T00:02:11;11.80;99.90
1704;DHT22;849;48.780;9.216;2022-12-29T00:04:37;11.70;99.90
1704;DHT22;849;48.780;9.216;2022-12-29T00:07:03;11.70;99.90
1704;DHT22;849;48.780;9.216;2022-12-29T00:09:30;11.90;99.90
1704;DHT22;849;48.780;9.216;2022-12-29T00:11:56;11.90;99.90
1704;DHT22;849;48.780;9.216;2022-12-29T00:14:21;11.90;99.90
1704;DHT22;849;48.780;9.216;2022-12-29T00:17:05;11.70;99.90
1704;DHT22;849;48.780;9.216;2022-12-29T00:19:31;11.90;99.90
1704;DHT22;849;48.780;9.216;2022-12-29T00:22:15;11.90;99.90
1704;DHT22;849;48.780;9.216;2022-12-29T00:24:59;11.90;99.90
1704;DHT22;849;48.780;9.216;2022-12-29T00:27:35;11.90;99.90
1704;DHT22;849;48.780;9.216;2022-12-29T00:30:21;11.70;99.90
1704;DHT22;849;48.780;9.216;2022-12-29T00:36:11;11.80;99.90
1704;DHT22;849;48.780;9.216;2022-12-29T00:38:41;11.90;99.90
1704;DHT22;849;48.780;9.216;2022-12-29T00:41:28;11.80;99.90
1704;DHT22;849;48.780;9.216;2022-12-29T00:44:13;11.80;99.90
1704;DHT22;849;48.780;9.216;2022-12-29T00:46:40;11.90;99.90
1704;DHT22;849;48.780;9.216;2022-12-29T00:49:08;12.00;99.90
1704;DHT22;849;48.780;9.216;2022-12-29T00:51:54;12.10;99.90
1704;DHT22;849;48.780;9.216;2022-12-29T00:54:20;12.10;99.80
1704;DHT22;849;48.780;9.216;2022-12-29T00:56:50;12.00;99.90
1704;DHT22;849;48.780;9.216;2022-12-29T00:59:16;12.10;99.60
1704;DHT22;849;48.780;9.216;2022-12-29T01:01:42;12.20;99.60
1704;DHT22;849;48.780;9.216;2022-12-29T01:04:08;12.30;99.40
1704;DHT22;849;48.780;9.216;2022-12-29T01:06:36;12.30;98.90
1704;DHT22;849;48.780;9.216;2022-12-29T01:09:02;12.40;98.70
1704;DHT22;849;48.780;9.216;2022-12-29T01:11:47;12.40;98.40
1704;DHT22;849;48.780;9.216;2022-12-29T01:14:13;12.40;98.50
1704;DHT22;849;48.780;9.216;2022-12-29T01:16:38;12.40;98.60
1704;DHT22;849;48.780;9.216;2022-12-29T01:19:04;12.30;98.50
1704;DHT22;849;48.780;9.216;2022-12-29T01:21:30;12.40;98.30
1704;DHT22;849;48.780;9.216;2022-12-29T01:23:55;12.20;98.70
1704;DHT22;849;48.780;9.216;2022-12-29T01:26:21;12.10;99.10
1704;DHT22;849;48.780;9.216;2022-12-29T01:28:47;12.30;98.90
1704;DHT22;849;48.780;9.216;2022-12-29T01:31:14;12.30;98.50
1704;DHT22;849;48.780;9.216;2022-12-29T01:33:41;12.30;98.80
1704;DHT22;849;48.780;9.216;2022-12-29T01:36:10;12.40;98.70
1704;DHT22;849;48.780;9.216;2022-12-29T01:38:37;12.50;98.10
1704;DHT22;849;48.780;9.216;2022-12-29T01:41:04;12.70;98.00
1704;DHT22;849;48.780;9.216;2022-12-29T01:46:22;12.30;97.90
1704;DHT22;849;48.780;9.216;2022-12-29T01:48:52;12.20;98.40
1704;DHT22;849;48.780;9.216;2022-12-29T01:51:20;12.30;98.40
1704;DHT22;849;48.780;9.216;2022-12-29T01:53:47;12.30;98.30
1704;DHT22;849;48.780;9.216;2022-12-29T01:56:14;12.40;98.30
1704;DHT22;849;48.780;9.216;2022-12-29T01:58:45;12.50;98.30
1704;DHT22;849;48.780;9.216;2022-12-29T02:01:13;12.30;98.20
1704;DHT22;849;48.780;9.216;2022-12-29T02:03:39;12.40;98.70
1704;DHT22;849;48.780;9.216;2022-12-29T02:06:22;12.30;98.10
1704;DHT22;849;48.780;9.216;2022-12-29T02:08:50;12.50;98.50
1704;DHT22;849;48.780;9.216;2022-12-29T02:11:18;12.60;98.90
1704;DHT22;849;48.780;9.216;2022-12-29T02:13:44;12.70;98.60
1704;DHT22;849;48.780;9.216;2022-12-29T02:27:53;12.70;98.10
1704;DHT22;849;48.780;9.216;2022-12-29T02:30:38;12.60;97.90
1704;DHT22;849;48.780;9.216;2022-12-29T02:33:23;12.40;98.20
1704;DHT22;849;48.780;9.216;2022-12-29T02:39:02;12.40;98.10
1704;DHT22;849;48.780;9.216;2022-12-29T02:42:19;12.30;98.10
1704;DHT22;849;48.780;9.216;2022-12-29T02:47:04;12.60;97.70
1704;DHT22;849;48.780;9.216;2022-12-29T02:49:36;12.60;97.40
1704;DHT22;849;48.780;9.216;2022-12-29T02:52:07;12.70;97.10
1704;DHT22;849;48.780;9.216;2022-12-29T02:54:36;12.80;97.00
1704;DHT22;849;48.780;9.216;2022-12-29T02:59:55;12.70;96.90
1704;DHT22;849;48.780;9.216;2022-12-29T03:02:46;12.70;96.90
1704;DHT22;849;48.780;9.216;2022-12-29T03:10:35;12.80;97.00
1704;DHT22;849;48.780;9.216;2022-12-29T03:13:13;12.80;96.60
1704;DHT22;849;48.780;9.216;2022-12-29T03:19:30;12.80;97.00
1704;DHT22;849;48.780;9.216;2022-12-29T03:21:42;12.60;96.90
1704;DHT22;849;48.780;9.216;2022-12-29T03:24:30;12.70;96.80
1704;DHT22;849;48.780;9.216;2022-12-29T03:26:59;12.80;96.90
1704;DHT22;849;48.780;9.216;2022-12-29T03:29:29;12.80;97.00
1704;DHT22;849;48.780;9.216;2022-12-29T03:31:56;12.90;97.00
1704;DHT22;849;48.780;9.216;2022-12-29T03:34:23;12.70;96.90
1704;DHT22;849;48.780;9.216;2022-12-29T03:37:01;12.70;97.00
1704;DHT22;849;48.780;9.216;2022-12-29T03:39:28;12.90;96.60
1704;DHT22;849;48.780;9.216;2022-12-29T03:42:03;12.90;96.90
1704;DHT22;849;48.780;9.216;2022-12-29T03:44:36;13.10;96.60
1704;DHT22;849;48.780;9.216;2022-12-29T03:47:03;13.10;96.80
1704;DHT22;849;48.780;9.216;2022-12-29T03:49:29;13.00;96.80
1704;DHT22;849;48.780;9.216;2022-12-29T03:51:54;13.00;96.90
1704;DHT22;849;48.780;9.216;2022-12-29T03:54:20;13.10;96.60
1704;DHT22;849;48.780;9.216;2022-12-29T03:56:45;13.10;96.50
1704;DHT22;849;48.780;9.216;2022-12-29T03:59:11;13.10;96.70
1704;DHT22;849;48.780;9.216;2022-12-29T04:01:37;12.90;97.50
1704;DHT22;849;48.780;9.216;2022-12-29T04:04:03;12.90;97.50
1704;DHT22;849;48.780;9.216;2022-12-29T04:06:29;12.90;97.50
1704;DHT22;849;48.780;9.216;2022-12-29T04:08:54;13.10;97.30
1704;DHT22;849;48.780;9.216;2022-12-29T04:11:21;13.20;97.10
1704;DHT22;849;48.780;9.216;2022-12-29T04:13:47;13.30;96.90
1704;DHT22;849;48.780;9.216;2022-12-29T04:16:12;13.20;96.60
1704;DHT22;849;48.780;9.216;2022-12-29T04:18:43;13.30;96.60
1704;DHT22;849;48.780;9.216;2022-12-29T04:21:09;13.20;96.60
1704;DHT22;849;48.780;9.216;2022-12-29T04:23:37;13.00;97.30
1704;DHT22;849;48.780;9.216;2022-12-29T04:26:03;13.00;97.30
1704;DHT22;849;48.780;9.216;2022-12-29T04:28:29;13.10;97.60
1704;DHT22;849;48.780;9.216;2022-12-29T04:30:55;13.10;97.40
1704;DHT22;849;48.780;9.216;2022-12-29T04:33:21;13.00;97.70
1704;DHT22;849;48.780;9.216;2022-12-29T04:35:47;13.00;97.90
1704;DHT22;849;48.780;9.216;2022-12-29T04:38:13;13.10;98.20
1704;DHT22;849;48.780;9.216;2022-12-29T04:40:41;13.10;98.00
1704;DHT22;849;48.780;9.216;2022-12-29T04:43:07;13.10;98.80
1704;DHT22;849;48.780;9.216;2022-12-29T04:45:33;13.10;98.70
1704;DHT22;849;48.780;9.216;2022-12-29T04:47:59;13.20;98.70
1704;DHT22;849;48.780;9.216;2022-12-29T04:50:25;13.10;98.80
1704;DHT22;849;48.780;9.216;2022-12-29T04:52:50;13.10;99.00
1704;DHT22;849;48.780;9.216;2022-12-29T04:55:16;13.00;99.20
1704;DHT22;849;48.780;9.216;2022-12-29T04:57:42;13.00;99.40
1704;DHT22;849;48.780;9.216;2022-12-29T05:00:08;13.00;99.60
1704;DHT22;849;48.780;9.216;2022-12-29T05:02:37;13.10;99.50
1704;DHT22;849;48.780;9.216;2022-12-29T05:05:03;13.10;99.70
1704;DHT22;849;48.780;9.216;2022-12-29T05:07:29;13.00;99.90
1704;DHT22;849;48.780;9.216;2022-12-29T05:09:55;13.10;99.90
1704;DHT22;849;48.780;9.216;2022-12-29T05:12:20;13.20;99.70
1704;DHT22;849;48.780;9.216;2022-12-29T05:14:46;13.10;99.90
1704;DHT22;849;48.780;9.216;2022-12-29T05:17:12;13.20;99.90
1704;DHT22;849;48.780;9.216;2022-12-29T05:19:37;13.30;99.80
1704;DHT22;849;48.780;9.216;2022-12-29T05:22:04;13.10;99.80
1704;DHT22;849;48.780;9.216;2022-12-29T05:24:29;13.10;99.90
1704;DHT22;849;48.780;9.216;2022-12-29T05:26:55;12.90;99.90
1704;DHT22;849;48.780;9.216;2022-12-29T05:29:20;12.80;99.90
1704;DHT22;849;48.780;9.216;2022-12-29T05:31:46;12.80;99.90
1704;DHT22;849;48.780;9.216;2022-12-29T05:34:12;12.70;99.90
1704;DHT22;849;48.780;9.216;2022-12-29T05:36:38;12.90;99.90
1704;DHT22;849;48.780;9.216;2022-12-29T05:39:04;12.90;99.90
1704;DHT22;849;48.780;9.216;2022-12-29T05:41:29;12.90;99.90
1704;DHT22;849;48.780;9.216;2022-12-29T05:43:55;12.70;99.90
1704;DHT22;849;48.780;9.216;2022-12-29T05:46:21;12.70;99.90
1704;DHT22;849;48.780;9.216;2022-12-29T05:48:46;12.90;99.90
1704;DHT22;849;48.780;9.216;2022-12-29T05:51:12;12.90;99.90
1704;DHT22;849;48.780;9.216;2022-12-29T05:53:38;12.90;99.90
1704;DHT22;849;48.780;9.216;2022-12-29T05:56:03;13.00;99.90
1704;DHT22;849;48.780;9.216;2022-12-29T05:58:29;13.00;99.90
1704;DHT22;849;48.780;9.216;2022-12-29T06:00:55;13.00;99.90
1704;DHT22;849;48.780;9.216;2022-12-29T06:03:21;13.00;99.90
1704;DHT22;849;48.780;9.216;2022-12-29T06:05:46;13.00;99.90
1704;DHT22;849;48.780;9.216;2022-12-29T06:08:12;13.00;99.90
1704;DHT22;849;48.780;9.216;2022-12-29T06:10:38;13.00;99.90
1704;DHT22;849;48.780;9.216;2022-12-29T06:13:04;13.10;99.90
1704;DHT22;849;48.780;9.216;2022-12-29T06:15:32;12.90;99.90
1704;DHT22;849;48.780;9.216;2022-12-29T06:17:58;12.90;99.90
1704;DHT22;849;48.780;9.216;2022-12-29T06:20:23;13.10;99.90
1704;DHT22;849;48.780;9.216;2022-12-29T06:22:49;13.10;99.80
1704;DHT22;849;48.780;9.216;2022-12-29T06:25:15;12.90;99.90
1704;DHT22;849;48.780;9.216;2022-12-29T06:27:41;12.90;99.70
1704;DHT22;849;48.780;9.216;2022-12-29T06:30:08;12.80;99.90
1704;DHT22;849;48.780;9.216;2022-12-29T06:32:35;12.80;99.80
1704;DHT22;849;48.780;9.216;2022-12-29T06:35:01;12.90;99.70
1704;DHT22;849;48.780;9.216;2022-12-29T06:37:27;12.90;99.50
1704;DHT22;849;48.780;9.216;2022-12-29T06:39:53;12.90;99.60
1704;DHT22;849;48.780;9.216;2022-12-29T06:42:18;12.90;99.20
1704;DHT22;849;48.780;9.216;2022-12-29T06:44:44;12.80;99.40
1704;DHT22;849;48.780;9.216;2022-12-29T06:47:10;12.70;99.40
1704;DHT22;849;48.780;9.216;2022-12-29T06:49:36;12.80;99.00
1704;DHT22;849;48.780;9.216;2022-12-29T06:52:01;12.80;99.10
1704;DHT22;849;48.780;9.216;2022-12-29T06:54:30;12.70;99.20
1704;DHT22;849;48.780;9.216;2022-12-29T06:56:55;12.50;99.20
1704;DHT22;849;48.780;9.216;2022-12-29T06:59:21;12.50;99.20
1704;DHT22;849;48.780;9.216;2022-12-29T07:01:47;12.30;99.30
1704;DHT22;849;48.780;9.216;2022-12-29T07:04:13;12.50;99.40
1704;DHT22;849;48.780;9.216;2022-12-29T07:06:38;12.50;99.00
1704;DHT22;849;48.780;9.216;2022-12-29T07:09:06;12.50;99.20
1704;DHT22;849;48.780;9.216;2022-12-29T07:11:32;12.50;99.00
1704;DHT22;849;48.780;9.216;2022-12-29T07:13:57;12.60;98.70
1704;DHT22;849;48.780;9.216;2022-12-29T07:16:23;12.60;98.80
1704;DHT22;849;48.780;9.216;2022-12-29T07:18:49;12.50;99.00
1704;DHT22;849;48.780;9.216;2022-12-29T07:21:14;12.40;98.90
1704;DHT22;849;48.780;9.216;2022-12-29T07:23:40;12.50;98.80
1704;DHT22;849;48.780;9.216;2022-12-29T07:26:08;12.70;99.00
1704;DHT22;849;48.780;9.216;2022-12-29T07:28:35;12.70;98.30
1704;DHT22;849;48.780;9.216;2022-12-29T07:31:01;12.70;98.60
1704;DHT22;849;48.780;9.216;2022-12-29T07:33:30;12.60;98.60
1704;DHT22;849;48.780;9.216;2022-12-29T07:35:56;12.60;98.90
1704;DHT22;849;48.780;9.216;2022-12-29T07:38:22;12.60;98.70
1704;DHT22;849;48.780;9.216;2022-12-29T07:40:48;12.70;98.60
1704;DHT22;849;48.780;9.216;2022-12-29T07:43:13;12.70;98.90
1704;DHT22;849;48.780;9.216;2022-12-29T07:45:39;12.60;99.00
1704;DHT22;849;48.780;9.216;2022-12-29T07:48:05;12.60;99.20
1704;DHT22;849;48.780;9.216;2022-12-29T07:50:34;12.60;99.00
1704;DHT22;849;48.780;9.216;2022-12-29T07:53:00;12.60;99.10
1704;DHT22;849;48.780;9.216;2022-12-29T07:55:25;12.70;99.00
1704;DHT22;849;48.780;9.216;2022-12-29T07:57:53;12.70;98.90
1704;DHT22;849;48.780;9.216;2022-12-29T08:00:20;12.80;99.10
1704;DHT22;849;48.780;9.216;2022-12-29T08:02:46;12.80;99.10
1704;DHT22;849;48.780;9.216;2022-12-29T08:05:11;12.80;99.30
1704;DHT22;849;48.780;9.216;2022-12-29T08:07:37;12.80;99.40
1704;DHT22;849;48.780;9.216;2022-12-29T08:10:03;12.80;99.20
1704;DHT22;849;48.780;9.216;2022-12-29T08:12:29;12.80;98.80
1704;DHT22;849;48.780;9.216;2022-12-29T08:14:54;12.80;99.30
1704;DHT22;849;48.780;9.216;2022-12-29T08:17:20;12.80;99.50
1704;DHT22;849;48.780;9.216;2022-12-29T08:19:46;12.80;99.90
1704;DHT22;849;48.780;9.216;2022-12-29T08:22:13;13.00;99.50
1704;DHT22;849;48.780;9.216;2022-12-29T08:24:39;12.90;99.90
1704;DHT22;849;48.780;9.216;2022-12-29T08:27:05;13.00;99.90
1704;DHT22;849;48.780;9.216;2022-12-29T08:29:31;13.00;99.60
1704;DHT22;849;48.780;9.216;2022-12-29T08:31:56;13.00;99.50
1704;DHT22;849;48.780;9.216;2022-12-29T08:34:22;13.00;99.60
1704;DHT22;849;48.780;9.216;2022-12-29T08:36:48;13.20;99.70
1704;DHT22;849;48.780;9.216;2022-12-29T08:39:13;13.30;99.30
1704;DHT22;849;48.780;9.216;2022-12-29T08:41:39;13.30;99.20
1704;DHT22;849;48.780;9.216;2022-12-29T08:44:05;13.40;99.20
1704;DHT22;849;48.780;9.216;2022-12-29T08:46:31;13.40;99.00
1704;DHT22;849;48.780;9.216;2022-12-29T08:48:57;13.30;99.40
1704;DHT22;849;48.780;9.216;2022-12-29T08:51:22;13.40;99.10
1704;DHT22;849;48.780;9.216;2022-12-29T08:53:48;13.40;99.00
1704;DHT22;849;48.780;9.216;2022-12-29T08:56:14;13.40;99.00
1704;DHT22;849;48.780;9.216;2022-12-29T08:58:40;13.30;99.20
1704;DHT22;849;48.780;9.216;2022-12-29T09:01:06;13.20;99.10
1704;DHT22;849;48.780;9.216;2022-12-29T09:03:32;13.30;99.00
1704;DHT22;849;48.780;9.216;2022-12-29T09:05:58;13.30;99.10
1704;DHT22;849;48.780;9.216;2022-12-29T09:08:23;13.40;98.70
1704;DHT22;849;48.780;9.216;2022-12-29T09:10:49;13.30;99.20
1704;DHT22;849;48.780;9.216;2022-12-29T09:13:15;13.30;98.60
1704;DHT22;849;48.780;9.216;2022-12-29T09:15:41;13.40;98.50
1704;DHT22;849;48.780;9.216;2022-12-29T09:18:08;13.50;98.70
1704;DHT22;849;48.780;9.216;2022-12-29T09:20:34;13.50;98.80
1704;DHT22;849;48.780;9.216;2022-12-29T09:23:00;13.60;98.60
1704;DHT22;849;48.780;9.216;2022-12-29T09:25:26;13.50;98.20
1704;DHT22;849;48.780;9.216;2022-12-29T09:27:52;13.60;98.30
1704;DHT22;849;48.780;9.216;2022-12-29T09:30:20;13.60;98.50
1704;DHT22;849;48.780;9.216;2022-12-29T09:32:46;13.70;98.50
1704;DHT22;849;48.780;9.216;2022-12-29T09:35:13;13.70;98.10
1704;DHT22;849;48.780;9.216;2022-12-29T09:37:38;13.80;98.00
1704;DHT22;849;48.780;9.216;2022-12-29T09:40:05;13.80;97.70
1704;DHT22;849;48.780;9.216;2022-12-29T09:45:20;13.90;98.00
1704;DHT22;849;48.780;9.216;2022-12-29T09:47:47;14.10;97.00
1704;DHT22;849;48.780;9.216;2022-12-29T09:50:35;14.00;97.40
1704;DHT22;849;48.780;9.216;2022-12-29T09:53:08;14.00;97.50
1704;DHT22;849;48.780;9.216;2022-12-29T09:55:39;14.00;97.80
1704;DHT22;849;48.780;9.216;2022-12-29T09:58:13;14.10;97.40
1704;DHT22;849;48.780;9.216;2022-12-29T10:01:03;14.20;97.50
1704;DHT22;849;48.780;9.216;2022-12-29T10:03:48;14.20;97.30
1704;DHT22;849;48.780;9.216;2022-12-29T10:06:22;14.30;96.80
1704;DHT22;849;48.780;9.216;2022-12-29T10:09:08;14.20;96.80
1704;DHT22;849;48.780;9.216;2022-12-29T10:12:15;14.20;96.80
1704;DHT22;849;48.780;9.216;2022-12-29T10:17:55;14.40;97.40
1704;DHT22;849;48.780;9.216;2022-12-29T10:25:58;14.40;96.80
1704;DHT22;849;48.780;9.216;2022-12-29T10:28:48;14.40;96.70
1704;DHT22;849;48.780;9.216;2022-12-29T10:31:23;14.40;97.00
1704;DHT22;849;48.780;9.216;2022-12-29T10:33:53;14.50;97.10
1704;DHT22;849;48.780;9.216;2022-12-29T10:36:29;14.60;97.30
1704;DHT22;849;48.780;9.216;2022-12-29T10:39:17;14.70;97.30
1704;DHT22;849;48.780;9.216;2022-12-29T10:41:50;14.60;96.80
1704;DHT22;849;48.780;9.216;2022-12-29T10:44:18;14.30;97.90
1704;DHT22;849;48.780;9.216;2022-12-29T10:46:54;14.10;97.50
1704;DHT22;849;48.780;9.216;2022-12-29T10:49:20;14.10;98.70
1704;DHT22;849;48.780;9.216;2022-12-29T10:51:48;14.40;98.00
1704;DHT22;849;48.780;9.216;2022-12-29T10:54:32;14.50;97.70
1704;DHT22;849;48.780;9.216;2022-12-29T10:57:34;14.70;97.70
1704;DHT22;849;48.780;9.216;2022-12-29T10:59:57;14.70;98.10
1704;DHT22;849;48.780;9.216;2022-12-29T11:08:35;15.00;97.50
1704;DHT22;849;48.780;9.216;2022-12-29T11:11:04;15.10;97.40
1704;DHT22;849;48.780;9.216;2022-12-29T11:13:33;15.30;96.50
1704;DHT22;849;48.780;9.216;2022-12-29T11:15:59;15.40;96.10
1704;DHT22;849;48.780;9.216;2022-12-29T11:18:33;15.50;96.20
1704;DHT22;849;48.780;9.216;2022-12-29T11:21:05;15.40;96.30
1704;DHT22;849;48.780;9.216;2022-12-29T11:23:33;15.20;96.50
1704;DHT22;849;48.780;9.216;2022-12-29T11:26:18;15.00;96.90
1704;DHT22;849;48.780;9.216;2022-12-29T11:28:47;15.00;97.00
1704;DHT22;849;48.780;9.216;2022-12-29T11:31:17;15.10;96.70
1704;DHT22;849;48.780;9.216;2022-12-29T11:33:43;15.10;97.00
1704;DHT22;849;48.780;9.216;2022-12-29T11:36:16;15.00;96.00
1704;DHT22;849;48.780;9.216;2022-12-29T11:38:46;14.70;96.70
1704;DHT22;849;48.780;9.216;2022-12-29T11:41:20;14.80;96.60
1704;DHT22;849;48.780;9.216;2022-12-29T11:43:46;14.80;96.90
1704;DHT22;849;48.780;9.216;2022-12-29T11:46:34;14.60;97.70
1704;DHT22;849;48.780;9.216;2022-12-29T11:49:01;14.50;99.30
1704;DHT22;849;48.780;9.216;2022-12-29T11:54:31;14.50;99.90
1704;DHT22;849;48.780;9.216;2022-12-29T11:56:58;14.30;99.90
1704;DHT22;849;48.780;9.216;2022-12-29T12:01:53;14.30;99.90
1704;DHT22;849;48.780;9.216;2022-12-29T12:04:23;14.30;99.90
1704;DHT22;849;48.780;9.216;2022-12-29T12:09:49;14.10;99.90
1704;DHT22;849;48.780;9.216;2022-12-29T12:14:56;14.40;99.90
1704;DHT22;849;48.780;9.216;2022-12-29T12:17:29;14.50;99.90
1704;DHT22;849;48.780;9.216;2022-12-29T12:20:19;14.70;99.90
1704;DHT22;849;48.780;9.216;2022-12-29T12:23:19;14.60;99.90
1704;DHT22;849;48.780;9.216;2022-12-29T12:26:10;14.40;99.90
1704;DHT22;849;48.780;9.216;2022-12-29T12:28:49;14.20;99.90
1704;DHT22;849;48.780;9.216;2022-12-29T12:31:26;13.80;99.90
1704;DHT22;849;48.780;9.216;2022-12-29T12:34:01;13.80;99.90
1704;DHT22;849;48.780;9.216;2022-12-29T12:36:47;13.80;99.90
1704;DHT22;849;48.780;9.216;2022-12-29T12:47:10;14.50;99.90
1704;DHT22;849;48.780;9.216;2022-12-29T12:58:11;14.40;99.90
1704;DHT22;849;48.780;9.216;2022-12-29T13:06:18;14.60;99.90
1704;DHT22;849;48.780;9.216;2022-12-29T13:09:00;14.70;99.90
1704;DHT22;849;48.780;9.216;2022-12-29T13:14:33;14.70;99.90
1704;DHT22;849;48.780;9.216;2022-12-29T13:19:51;14.50;99.90
1704;DHT22;849;48.780;9.216;2022-12-29T13:22:43;14.50;99.90
1704;DHT22;849;48.780;9.216;2022-12-29T13:28:25;14.60;99.90
1704;DHT22;849;48.780;9.216;2022-12-29T13:31:04;14.70;99.90
1704;DHT22;849;48.780;9.216;2022-12-29T13:33:41;14.80;99.90
1704;DHT22;849;48.780;9.216;2022-12-29T13:41:34;14.50;99.90
1704;DHT22;849;48.780;9.216;2022-12-29T13:44:03;14.50;99.90
1704;DHT22;849;48.780;9.216;2022-12-29T13:46:40;14.60;99.90
1704;DHT22;849;48.780;9.216;2022-12-29T13:49:22;14.50;99.90
1704;DHT22;849;48.780;9.216;2022-12-29T13:51:58;14.40;99.90
1704;DHT22;849;48.780;9.216;2022-12-29T14:00:02;14.50;99.90
1704;DHT22;849;48.780;9.216;2022-12-29T14:07:56;14.60;99.90
1704;DHT22;849;48.780;9.216;2022-12-29T14:13:19;14.60;99.90
1704;DHT22;849;48.780;9.216;2022-12-29T14:15:52;14.50;99.90
1704;DHT22;849;48.780;9.216;2022-12-29T14:18:21;14.60;99.90
1704;DHT22;849;48.780;9.216;2022-12-29T14:23:43;14.50;99.90
1704;DHT22;849;48.780;9.216;2022-12-29T14:28:47;14.20;99.90
1704;DHT22;849;48.780;9.216;2022-12-29T14:37:00;14.20;99.90
1704;DHT22;849;48.780;9.216;2022-12-29T14:42:05;14.50;99.90
1704;DHT22;849;48.780;9.216;2022-12-29T14:44:32;14.50;99.90
1704;DHT22;849;48.780;9.216;2022-12-29T14:47:01;14.50;99.90
1704;DHT22;849;48.780;9.216;2022-12-29T14:49:32;14.50;99.90
1704;DHT22;849;48.780;9.216;2022-12-29T14:52:21;14.40;99.90
1704;DHT22;849;48.780;9.216;2022-12-29T14:54:49;14.40;99.90
1704;DHT22;849;48.780;9.216;2022-12-29T14:57:30;14.40;99.90
1704;DHT22;849;48.780;9.216;2022-12-29T15:00:02;14.50;99.90
1704;DHT22;849;48.780;9.216;2022-12-29T15:02:36;14.60;99.90
1704;DHT22;849;48.780;9.216;2022-12-29T15:05:05;14.50;99.90
1704;DHT22;849;48.780;9.216;2022-12-29T15:07:32;14.50;99.90
1704;DHT22;849;48.780;9.216;2022-12-29T15:10:05;14.50;99.90
1704;DHT22;849;48.780;9.216;2022-12-29T15:12:38;14.40;99.90
1704;DHT22;849;48.780;9.216;2022-12-29T15:15:18;14.30;99.90
1704;DHT22;849;48.780;9.216;2022-12-29T15:17:44;14.30;99.90
1704;DHT22;849;48.780;9.216;2022-12-29T15:20:21;14.40;99.90
1704;DHT22;849;48.780;9.216;2022-12-29T15:23:10;14.40;99.90
1704;DHT22;849;48.780;9.216;2022-12-29T15:25:47;14.30;99.90
1704;DHT22;849;48.780;9.216;2022-12-29T15:28:13;14.20;99.90
1704;DHT22;849;48.780;9.216;2022-12-29T15:30:51;14.30;99.90
1704;DHT22;849;48.780;9.216;2022-12-29T15:33:22;14.20;99.90
1704;DHT22;849;48.780;9.216;2022-12-29T15:35:52;14.30;99.90
1704;DHT22;849;48.780;9.216;2022-12-29T15:38:27;14.20;99.90
1704;DHT22;849;48.780;9.216;2022-12-29T15:40:56;14.20;99.90
1704;DHT22;849;48.780;9.216;2022-12-29T15:43:37;14.20;99.90
1704;DHT22;849;48.780;9.216;2022-12-29T15:46:07;14.20;99.90
1704;DHT22;849;48.780;9.216;2022-12-29T15:48:33;14.30;99.90
1704;DHT22;849;48.780;9.216;2022-12-29T15:50:59;14.10;99.90
1704;DHT22;849;48.780;9.216;2022-12-29T15:53:30;14.00;99.90
1704;DHT22;849;48.780;9.216;2022-12-29T15:56:05;13.80;99.90
1704;DHT22;849;48.780;9.216;2022-12-29T15:58:43;14.00;99.90
1704;DHT22;849;48.780;9.216;2022-12-29T16:01:33;13.80;99.90
1704;DHT22;849;48.780;9.216;2022-12-29T16:04:06;14.00;99.90
1704;DHT22;849;48.780;9.216;2022-12-29T16:06:44;13.70;99.90
1704;DHT22;849;48.780;9.216;2022-12-29T16:09:16;13.30;99.90
1704;DHT22;849;48.780;9.216;2022-12-29T16:11:53;13.20;99.90
1704;DHT22;849;48.780;9.216;2022-12-29T16:14:27;13.00;99.90
1704;DHT22;849;48.780;9.216;2022-12-29T16:16:57;12.70;99.90
1704;DHT22;849;48.780;9.216;2022-12-29T16:19:27;12.90;99.90
1704;DHT22;849;48.780;9.216;2022-12-29T16:21:55;12.80;99.90
1704;DHT22;849;48.780;9.216;2022-12-29T16:24:26;12.70;99.90
1704;DHT22;849;48.780;9.216;2022-12-29T16:27:23;12.70;99.90
1704;DHT22;849;48.780;9.216;2022-12-29T16:29:54;12.90;99.90
1704;DHT22;849;48.780;9.216;2022-12-29T16:32:31;12.80;99.90
1704;DHT22;849;48.780;9.216;2022-12-29T16:37:31;13.20;99.90
1704;DHT22;849;48.780;9.216;2022-12-29T16:48:32;13.50;99.90
1704;DHT22;849;48.780;9.216;2022-12-29T16:51:05;13.60;99.90
1704;DHT22;849;48.780;9.216;2022-12-29T16:53:34;13.50;99.90
1704;DHT22;849;48.780;9.216;2022-12-29T16:56:17;13.60;99.90
1704;DHT22;849;48.780;9.216;2022-12-29T16:58:49;13.40;99.90
1704;DHT22;849;48.780;9.216;2022-12-29T17:01:16;13.10;99.90
1704;DHT22;849;48.780;9.216;2022-12-29T17:03:50;13.30;99.90
1704;DHT22;849;48.780;9.216;2022-12-29T17:06:18;13.50;99.90
1704;DHT22;849;48.780;9.216;2022-12-29T17:08:44;13.70;99.90
1704;DHT22;849;48.780;9.216;2022-12-29T17:11:37;13.70;99.90
1704;DHT22;849;48.780;9.216;2022-12-29T17:14:44;13.50;99.90
1704;DHT22;849;48.780;9.216;2022-12-29T17:17:40;13.60;99.90
1704;DHT22;849;48.780;9.216;2022-12-29T17:20:24;13.50;99.90
1704;DHT22;849;48.780;9.216;2022-12-29T17:22:51;13.60;99.90
1704;DHT22;849;48.780;9.216;2022-12-29T17:25:32;13.60;99.90
1704;DHT22;849;48.780;9.216;2022-12-29T17:28:04;13.60;99.90
1704;DHT22;849;48.780;9.216;2022-12-29T17:30:32;13.50;99.90
1704;DHT22;849;48.780;9.216;2022-12-29T17:33:01;13.50;99.90
1704;DHT22;849;48.780;9.216;2022-12-29T17:35:27;13.50;99.90
1704;DHT22;849;48.780;9.216;2022-12-29T17:37:53;13.50;99.90
1704;DHT22;849;48.780;9.216;2022-12-29T17:40:21;13.40;99.90
1704;DHT22;849;48.780;9.216;2022-12-29T17:42:53;12.90;99.90
1704;DHT22;849;48.780;9.216;2022-12-29T17:45:24;13.00;99.90
1704;DHT22;849;48.780;9.216;2022-12-29T17:47:50;13.10;99.90
1704;DHT22;849;48.780;9.216;2022-12-29T17:50:18;13.10;99.90
1704;DHT22;849;48.780;9.216;2022-12-29T17:52:51;13.10;99.90
1704;DHT22;849;48.780;9.216;2022-12-29T17:55:19;13.10;99.90
1704;DHT22;849;48.780;9.216;2022-12-29T17:57:46;13.20;99.90
1704;DHT22;849;48.780;9.216;2022-12-29T18:00:23;13.10;99.90
1704;DHT22;849;48.780;9.216;2022-12-29T18:02:52;12.80;99.90
1704;DHT22;849;48.780;9.216;2022-12-29T18:05:29;12.90;99.90
1704;DHT22;849;48.780;9.216;2022-12-29T18:07:58;12.70;99.90
1704;DHT22;849;48.780;9.216;2022-12-29T18:10:26;12.60;99.90
1704;DHT22;849;48.780;9.216;2022-12-29T18:12:54;12.30;99.90
1704;DHT22;849;48.780;9.216;2022-12-29T18:15:32;12.00;99.90
1704;DHT22;849;48.780;9.216;2022-12-29T18:21:02;12.50;99.90
1704;DHT22;849;48.780;9.216;2022-12-29T18:23:30;12.70;99.90
1704;DHT22;849;48.780;9.216;2022-12-29T18:26:06;12.50;99.90
1704;DHT22;849;48.780;9.216;2022-12-29T18:28:36;12.20;99.90
1704;DHT22;849;48.780;9.216;2022-12-29T18:31:02;12.00;99.90
1704;DHT22;849;48.780;9.216;2022-12-29T18:33:28;11.80;99.90
1704;DHT22;849;48.780;9.216;2022-12-29T18:35:59;11.90;99.90
1704;DHT22;849;48.780;9.216;2022-12-29T18:38:26;12.10;99.90
1704;DHT22;849;48.780;9.216;2022-12-29T18:40:53;12.30;99.90
1704;DHT22;849;48.780;9.216;2022-12-29T18:43:19;12.30;99.90
1704;DHT22;849;48.780;9.216;2022-12-29T18:45:46;12.10;99.90
1704;DHT22;849;48.780;9.216;2022-12-29T18:48:15;12.30;99.90
1704;DHT22;849;48.780;9.216;2022-12-29T18:50:45;12.30;99.90
1704;DHT22;849;48.780;9.216;2022-12-29T18:53:20;12.30;99.90
1704;DHT22;849;48.780;9.216;2022-12-29T18:55:51;12.40;99.90
1704;DHT22;849;48.780;9.216;2022-12-29T18:58:17;12.50;99.90
1704;DHT22;849;48.780;9.216;2022-12-29T19:00:45;12.60;99.90